createdAt,value
2018-08-12T00:01:37.900Z,17.40
2018-08-12T00:06:41.089Z,17.40
2018-08-12T00:11:44.111Z,17.30
2018-08-12T00:16:47.138Z,17.50
2018-08-12T00:21:50.180Z,17.50
2018-08-12T00:26:53.227Z,17.40
2018-08-12T00:31:56.251Z,17.50
2018-08-12T00:36:59.290Z,17.40
2018-08-12T00:42:02.319Z,17.30
2018-08-12T00:47:05.344Z,17.40
2018-08-12T00:52:09.534Z,17.50
2018-08-12T00:57:12.595Z,17.50
2018-08-12T01:02:15.590Z,17.30
2018-08-12T01:07:18.855Z,17.30
2018-08-12T01:12:21.895Z,17.20
2018-08-12T01:17:24.923Z,17.20
2018-08-12T01:22:27.963Z,17.30
2018-08-12T01:27:31.012Z,17.20
2018-08-12T01:32:34.030Z,17.20
2018-08-12T01:37:37.115Z,17.20
2018-08-12T01:42:40.639Z,17.20
2018-08-12T01:47:43.763Z,17.20
2018-08-12T01:52:46.806Z,17.10
2018-08-12T01:57:49.859Z,17.00
2018-08-12T02:02:52.859Z,16.90
2018-08-12T02:07:55.892Z,16.90
2018-08-12T02:12:58.926Z,16.80
2018-08-12T02:18:01.950Z,16.80
2018-08-12T02:23:04.974Z,16.70
2018-08-12T02:28:07.994Z,16.50
2018-08-12T02:33:11.103Z,16.30
2018-08-12T02:38:14.113Z,16.20
2018-08-12T02:43:17.180Z,16.20
2018-08-12T02:48:20.224Z,16.30
2018-08-12T02:53:23.221Z,16.10
2018-08-12T02:58:26.254Z,15.90
2018-08-12T03:03:29.299Z,15.80
2018-08-12T03:08:32.319Z,15.70
2018-08-12T03:13:35.405Z,15.70
2018-08-12T03:18:38.511Z,15.90
2018-08-12T03:23:41.528Z,15.80
2018-08-12T03:28:44.540Z,15.20
2018-08-12T03:33:47.603Z,14.90
2018-08-12T03:38:50.651Z,14.80
2018-08-12T03:43:53.667Z,14.70
2018-08-12T03:48:56.708Z,14.50
2018-08-12T03:53:59.742Z,14.70
2018-08-12T03:59:02.767Z,14.90
2018-08-12T04:04:05.908Z,14.80
2018-08-12T04:09:09.963Z,14.90
2018-08-12T04:14:13.003Z,15.00
2018-08-12T04:19:16.010Z,15.10
2018-08-12T04:24:19.200Z,15.00
2018-08-12T04:29:22.518Z,15.00
2018-08-12T04:34:25.619Z,15.20
2018-08-12T04:39:28.639Z,15.40
2018-08-12T04:44:31.857Z,15.40
2018-08-12T04:49:34.868Z,15.20
2018-08-12T04:54:37.890Z,15.10
2018-08-12T04:59:41.332Z,15.20
2018-08-12T05:04:44.359Z,15.30
2018-08-12T05:09:47.394Z,15.50
2018-08-12T05:14:50.452Z,15.60
2018-08-12T05:19:53.490Z,15.70
2018-08-12T05:24:56.500Z,15.80
2018-08-12T05:29:59.522Z,15.90
2018-08-12T05:35:02.588Z,16.10
2018-08-12T05:40:07.334Z,16.10
2018-08-12T05:45:10.721Z,16.20
2018-08-12T05:50:13.774Z,16.40
2018-08-12T05:55:16.824Z,16.60
2018-08-12T06:00:19.884Z,16.90
2018-08-12T06:05:22.915Z,17.00
2018-08-12T06:10:25.944Z,17.20
2018-08-12T06:15:29.062Z,17.30
2018-08-12T06:20:32.192Z,17.40
2018-08-12T06:25:35.243Z,17.50
2018-08-12T06:30:38.380Z,17.80
2018-08-12T06:35:41.463Z,18.20
2018-08-12T06:40:44.522Z,18.50
2018-08-12T06:45:47.663Z,18.30
2018-08-12T06:50:50.769Z,18.30
2018-08-12T06:55:53.862Z,18.50
2018-08-12T07:00:56.890Z,18.80
2018-08-12T07:05:59.976Z,19.00
2018-08-12T07:11:03.156Z,19.20
2018-08-12T07:16:06.316Z,19.20
2018-08-12T07:21:09.391Z,19.30
2018-08-12T07:26:12.499Z,19.70
2018-08-12T07:31:15.515Z,20.00
2018-08-12T07:36:18.603Z,20.20
2018-08-12T07:41:21.632Z,20.40
2018-08-12T07:46:24.670Z,20.30
2018-08-12T07:51:27.695Z,20.30
2018-08-12T07:56:30.728Z,20.70
2018-08-12T08:01:33.818Z,20.60
2018-08-12T08:06:36.839Z,20.80
2018-08-12T08:11:40.164Z,20.90
2018-08-12T08:16:43.236Z,21.10
2018-08-12T08:21:46.347Z,21.30
2018-08-12T08:26:52.214Z,21.30
2018-08-12T08:31:58.254Z,21.30
2018-08-12T08:37:05.053Z,21.40
2018-08-12T08:42:13.206Z,21.70
2018-08-12T08:47:17.382Z,21.80
2018-08-12T08:52:22.451Z,22.00
2018-08-12T08:57:26.499Z,22.10
2018-08-12T09:02:29.720Z,22.30
2018-08-12T09:07:32.720Z,22.50
2018-08-12T09:12:38.084Z,22.50
2018-08-12T09:17:41.690Z,22.70
2018-08-12T09:22:44.926Z,23.20
2018-08-12T09:27:48.066Z,23.80
2018-08-12T09:32:51.218Z,24.30
2018-08-12T09:37:54.255Z,24.10
2018-08-12T09:42:57.313Z,24.30
2018-08-12T09:48:00.312Z,23.60
2018-08-12T09:53:03.335Z,24.40
2018-08-12T09:58:06.360Z,24.30
2018-08-12T10:03:10.273Z,24.50
2018-08-12T10:08:13.295Z,24.80
2018-08-12T10:13:16.356Z,24.90
2018-08-12T10:18:19.452Z,25.00
2018-08-12T10:23:22.482Z,25.00
2018-08-12T10:28:25.887Z,25.20
2018-08-12T10:33:28.963Z,25.10
2018-08-12T10:38:32.146Z,25.60
2018-08-12T10:43:35.247Z,25.60
2018-08-12T10:48:38.432Z,25.60
2018-08-12T10:53:41.563Z,26.20
2018-08-12T10:58:44.622Z,26.90
2018-08-12T11:03:47.648Z,27.20
2018-08-12T11:08:50.687Z,26.30
2018-08-12T11:13:53.890Z,26.90
2018-08-12T11:18:56.907Z,26.90
2018-08-12T11:24:00.943Z,27.00
2018-08-12T11:29:06.538Z,27.50
2018-08-12T11:34:11.846Z,27.80
2018-08-12T11:39:16.402Z,28.20
2018-08-12T11:44:19.972Z,28.60
2018-08-12T11:49:24.008Z,28.00
2018-08-12T11:54:27.044Z,27.90
2018-08-12T11:59:30.138Z,28.00
2018-08-12T12:04:33.327Z,29.00
2018-08-12T12:09:36.278Z,28.10
2018-08-12T12:14:43.008Z,27.70
2018-08-12T12:19:46.120Z,28.00
2018-08-12T12:24:49.160Z,28.20
2018-08-12T12:29:52.257Z,27.90
2018-08-12T12:34:55.434Z,27.60
2018-08-12T12:39:58.514Z,27.70
2018-08-12T12:45:01.573Z,28.20
2018-08-12T12:50:07.046Z,28.60
2018-08-12T12:55:10.024Z,28.40
2018-08-12T13:00:14.611Z,28.60
2018-08-12T13:05:19.081Z,28.20
2018-08-12T13:10:22.107Z,28.30
2018-08-12T13:15:25.235Z,28.40
2018-08-12T13:20:28.246Z,28.10
2018-08-12T13:25:31.339Z,28.30
2018-08-12T13:30:34.363Z,28.90
2018-08-12T13:35:37.443Z,29.30
2018-08-12T13:40:40.467Z,29.90
2018-08-12T13:45:43.555Z,29.60
2018-08-12T13:50:46.567Z,30.20
2018-08-12T13:55:49.673Z,30.50
2018-08-12T14:00:52.778Z,30.10
2018-08-12T14:05:55.867Z,29.90
2018-08-12T14:10:58.892Z,29.80
2018-08-12T14:16:01.985Z,30.60
2018-08-12T14:21:05.024Z,30.30
2018-08-12T14:26:08.203Z,30.10
2018-08-12T14:31:12.331Z,30.30
2018-08-12T14:36:16.996Z,30.30
2018-08-12T14:41:20.062Z,30.30
2018-08-12T14:46:23.166Z,30.20
2018-08-12T14:51:26.181Z,30.00
2018-08-12T14:56:29.291Z,29.70
2018-08-12T15:01:32.308Z,29.80
2018-08-12T15:06:35.318Z,30.10
2018-08-12T15:11:38.333Z,30.30
2018-08-12T15:16:41.375Z,29.90
2018-08-12T15:21:44.375Z,29.60
2018-08-12T15:26:47.418Z,30.10
2018-08-12T15:31:50.430Z,30.20
2018-08-12T15:36:53.479Z,30.20
2018-08-12T15:41:56.511Z,29.80
2018-08-12T15:46:59.543Z,29.80
2018-08-12T15:52:02.666Z,30.60
2018-08-12T15:57:05.831Z,30.00
2018-08-12T16:02:08.772Z,30.20
2018-08-12T16:07:11.780Z,30.00
2018-08-12T16:12:14.792Z,31.00
2018-08-12T16:17:17.883Z,31.30
2018-08-12T16:22:20.898Z,30.90
2018-08-12T16:27:23.946Z,30.00
2018-08-12T16:32:26.966Z,29.40
2018-08-12T16:37:29.988Z,29.40
2018-08-12T16:42:33.004Z,29.40
2018-08-12T16:47:36.011Z,29.50
2018-08-12T16:52:39.904Z,29.10
2018-08-12T16:57:44.008Z,29.30
2018-08-12T17:02:49.003Z,29.70
2018-08-12T17:07:52.424Z,29.40
2018-08-12T17:12:55.430Z,29.00
2018-08-12T17:17:58.518Z,28.80
2018-08-12T17:23:01.514Z,28.90
2018-08-12T17:28:04.711Z,28.70
2018-08-12T17:33:07.724Z,28.40
2018-08-12T17:38:10.755Z,28.00
2018-08-12T17:43:13.905Z,27.80
2018-08-12T17:48:16.981Z,27.80
2018-08-12T17:53:19.975Z,27.60
2018-08-12T17:58:23.007Z,27.40
2018-08-12T18:03:26.015Z,27.30
2018-08-12T18:08:29.450Z,27.00
2018-08-12T18:13:32.455Z,26.80
2018-08-12T18:18:35.467Z,26.60
2018-08-12T18:23:38.494Z,26.30
2018-08-12T18:28:41.511Z,26.10
2018-08-12T18:33:44.535Z,25.80
2018-08-12T18:38:47.620Z,25.60
2018-08-12T18:43:50.655Z,25.40
2018-08-12T18:48:54.039Z,25.20
2018-08-12T18:53:57.103Z,25.10
2018-08-12T18:59:00.107Z,24.90
2018-08-12T19:04:03.319Z,24.80
2018-08-12T19:09:08.312Z,24.70
2018-08-12T19:14:11.338Z,24.60
2018-08-12T19:19:14.415Z,24.40
2018-08-12T19:24:17.468Z,24.30
2018-08-12T19:29:20.525Z,24.20
2018-08-12T19:34:23.576Z,23.80
2018-08-12T19:39:26.663Z,23.70
2018-08-12T19:44:29.713Z,23.60
2018-08-12T19:49:32.747Z,23.60
2018-08-12T19:54:35.750Z,23.40
2018-08-12T19:59:38.756Z,23.30
2018-08-12T20:04:41.770Z,23.20
2018-08-12T20:09:44.858Z,23.20
2018-08-12T20:14:47.880Z,23.10
2018-08-12T20:19:50.884Z,23.00
2018-08-12T20:24:53.888Z,22.80
2018-08-12T20:29:56.960Z,22.80
2018-08-12T20:34:59.979Z,22.70
2018-08-12T20:40:03.388Z,22.50
2018-08-12T20:45:06.896Z,22.50
2018-08-12T20:50:09.921Z,22.40
2018-08-12T20:55:12.995Z,22.40
2018-08-12T21:00:16.027Z,22.30
2018-08-12T21:05:19.065Z,22.20
2018-08-12T21:10:22.062Z,22.20
2018-08-12T21:15:25.367Z,22.10
2018-08-12T21:20:28.415Z,22.10
2018-08-12T21:25:31.472Z,22.00
2018-08-12T21:30:34.570Z,21.90
2018-08-12T21:35:37.632Z,21.90
2018-08-12T21:40:40.656Z,21.80
2018-08-12T21:45:43.705Z,21.70
2018-08-12T21:50:46.795Z,21.60
2018-08-12T21:55:50.055Z,21.60
2018-08-12T22:00:54.396Z,21.50
2018-08-12T22:05:57.547Z,21.40
2018-08-12T22:11:00.523Z,21.30
2018-08-12T22:16:03.640Z,21.30
2018-08-12T22:21:06.758Z,21.20
2018-08-12T22:26:09.795Z,21.10
2018-08-12T22:31:12.843Z,21.00
2018-08-12T22:36:15.907Z,20.90
2018-08-12T22:41:18.922Z,20.90
2018-08-12T22:46:21.995Z,20.80
2018-08-12T22:51:25.057Z,20.70
2018-08-12T22:56:28.087Z,20.60
2018-08-12T23:01:31.141Z,20.60
2018-08-12T23:06:34.194Z,20.50
2018-08-12T23:11:37.444Z,20.50
2018-08-12T23:17:11.514Z,20.40
2018-08-12T23:22:14.587Z,20.30
2018-08-12T23:27:18.269Z,20.30
2018-08-12T23:32:21.385Z,20.20
2018-08-12T23:37:24.388Z,20.20
2018-08-12T23:42:27.394Z,20.20
2018-08-12T23:47:30.399Z,20.10
2018-08-12T23:52:33.414Z,20.20
2018-08-12T23:57:36.420Z,20.10
